Time;durP1;ratioP1;P1;durP2;ratioP2;P2;SDS_P1;SDS_P2;PMS_P1;PMS_P2;Temp;Humidity;BMP_temperature;BMP_pressure;BME280_temperature;BME280_humidity;BME280_pressure;Samples;Min_cycle;Max_cycle;Signal;HPM_P1;HPM_P2
2022/11/28 00:01:51;;;;;;;20.27;11.30;;;;;;;3.71;96.14;92910.00;5051489;28;20491;-74
2022/11/28 00:04:16;;;;;;;18.23;11.25;;;;;;;3.69;96.33;92910.25;5033955;28;20118;-74
2022/11/28 00:06:44;;;;;;;22.77;11.70;;;;;;;3.70;96.65;92918.81;5051247;28;20029;-74
2022/11/28 00:09:11;;;;;;;19.48;11.38;;;;;;;3.67;98.77;92911.50;5051149;28;20037;-73
2022/11/28 00:11:42;;;;;;;19.75;11.48;;;;;;;3.67;98.81;92908.91;5051106;28;20041;-74
2022/11/28 00:14:08;;;;;;;19.92;11.00;;;;;;;3.67;98.82;92903.72;5016822;28;20025;-74
2022/11/28 00:16:35;;;;;;;17.55;10.25;;;;;;;3.66;99.45;92899.56;5018908;28;20029;-74
2022/11/28 00:19:01;;;;;;;17.33;9.95;;;;;;;3.58;100.00;92898.16;5050948;28;20069;-74
2022/11/28 00:21:27;;;;;;;17.13;10.48;;;;;;;3.60;100.00;92895.31;5051095;28;20033;-73
2022/11/28 00:23:53;;;;;;;19.20;11.23;;;;;;;3.58;100.00;92895.56;5051013;28;20422;-73
2022/11/28 00:26:24;;;;;;;16.90;10.57;;;;;;;3.60;100.00;92888.31;5051037;28;20044;-73
2022/11/28 00:28:50;;;;;;;17.52;10.55;;;;;;;3.58;100.00;92885.22;5033214;28;20029;-73
2022/11/28 00:31:19;;;;;;;19.67;11.32;;;;;;;3.60;99.67;92897.91;5037716;28;20390;-73
2022/11/28 00:33:45;;;;;;;20.70;10.57;;;;;;;3.61;99.61;92892.50;5050171;28;20071;-75
2022/11/28 00:36:11;;;;;;;22.23;10.95;;;;;;;3.62;99.23;92890.69;5016582;28;20065;-74
2022/11/28 00:38:37;;;;;;;22.70;11.50;;;;;;;3.62;98.98;92882.94;5050733;28;20056;-73
2022/11/28 00:41:08;;;;;;;19.67;10.82;;;;;;;3.63;98.91;92881.94;5050973;28;20135;-74
2022/11/28 00:43:34;;;;;;;19.65;10.45;;;;;;;3.61;99.44;92886.53;5032887;28;20102;-74
2022/11/28 00:46:01;;;;;;;16.40;9.77;;;;;;;3.60;99.54;92887.56;5022543;28;20037;-74
2022/11/28 00:48:26;;;;;;;19.13;11.00;;;;;;;3.61;99.75;92884.75;5050601;28;20040;-74
2022/11/28 00:50:54;;;;;;;24.23;11.82;;;;;;;3.59;99.97;92884.19;5060672;28;20033;-74
2022/11/28 00:53:20;;;;;;;19.38;11.07;;;;;;;3.60;99.96;92882.38;5070540;28;20102;-74
2022/11/28 00:55:46;;;;;;;17.55;10.52;;;;;;;3.59;99.72;92876.41;5070647;28;20044;-74
2022/11/28 00:58:12;;;;;;;18.52;10.35;;;;;;;3.59;100.00;92878.22;5070569;28;20051;-75
2022/11/28 01:00:38;;;;;;;19.63;11.00;;;;;;;3.59;100.00;92875.63;5070736;28;20219;-74
2022/11/28 01:03:03;;;;;;;20.25;10.60;;;;;;;3.57;100.00;92875.09;5073399;28;20470;-75
2022/11/28 01:05:29;;;;;;;20.55;10.73;;;;;;;3.58;100.00;92874.06;5048545;28;20121;-74
2022/11/28 01:07:55;;;;;;;22.48;10.63;;;;;;;3.57;100.00;92872.50;5020164;28;20486;-75
2022/11/28 01:10:20;;;;;;;18.30;10.88;;;;;;;3.57;100.00;92867.31;5055198;28;20045;-75
2022/11/28 01:12:46;;;;;;;19.73;10.93;;;;;;;3.57;100.00;92869.91;5038908;28;20033;-74
2022/11/28 01:15:12;;;;;;;18.70;9.75;;;;;;;3.57;100.00;92867.31;5056267;28;20040;-75
2022/11/28 01:17:38;;;;;;;21.98;10.43;;;;;;;3.57;100.00;92862.13;5056322;28;20047;-75
2022/11/28 01:20:06;;;;;;;20.00;10.15;;;;;;;3.54;100.00;92864.19;5040041;28;20037;-74
2022/11/28 01:22:32;;;;;;;17.20;9.75;;;;;;;3.55;100.00;92864.94;5056369;28;20028;-74
2022/11/28 01:24:58;;;;;;;17.88;10.35;;;;;;;3.54;100.00;92868.56;5056236;28;20051;-75
2022/11/28 01:27:23;;;;;;;20.42;11.45;;;;;;;3.51;100.00;92869.81;5003646;28;20132;-74
2022/11/28 01:29:49;;;;;;;24.30;11.73;;;;;;;3.51;100.00;92864.66;5036328;28;20119;-74
2022/11/28 01:32:14;;;;;;;18.58;11.48;;;;;;;3.50;99.93;92852.72;5054169;28;20135;-75
2022/11/28 01:34:40;;;;;;;19.40;11.57;;;;;;;3.50;99.77;92857.88;5039088;28;20040;-75
2022/11/28 01:37:05;;;;;;;16.55;9.80;;;;;;;3.50;100.00;92857.88;5019590;28;20120;-74
2022/11/28 01:39:32;;;;;;;19.15;10.75;;;;;;;3.47;100.00;92847.22;5054021;28;20037;-74
2022/11/28 01:41:57;;;;;;;17.73;10.82;;;;;;;3.45;100.00;92850.03;5036224;28;20041;-73
2022/11/28 01:44:23;;;;;;;18.20;9.80;;;;;;;3.43;100.00;92846.91;5056114;28;20389;-74
2022/11/28 01:46:48;;;;;;;19.25;10.50;;;;;;;3.44;100.00;92843.28;5053825;28;20028;-74
2022/11/28 01:49:16;;;;;;;17.42;10.57;;;;;;;3.43;100.00;92839.13;5035798;28;20459;-73
2022/11/28 01:51:49;;;;;;;17.92;10.75;;;;;;;3.41;100.00;92832.63;5053582;28;20021;-75
2022/11/28 01:54:17;;;;;;;24.55;11.13;;;;;;;3.37;100.00;92827.13;5035724;28;20540;-74
2022/11/28 01:56:51;;;;;;;22.95;10.82;;;;;;;3.40;100.00;92826.66;5053693;28;20040;-75
2022/11/28 01:59:20;;;;;;;20.73;10.95;;;;;;;3.39;100.00;92824.31;5073632;28;20116;-75
2022/11/28 02:01:46;;;;;;;21.42;11.98;;;;;;;3.37;100.00;92816.00;5073637;28;20474;-75
2022/11/28 02:04:13;;;;;;;23.33;12.15;;;;;;;3.35;100.00;92813.63;5039298;28;20047;-75
2022/11/28 02:06:40;;;;;;;21.75;12.25;;;;;;;3.33;100.00;92816.47;5061254;28;20044;-74
2022/11/28 02:09:11;;;;;;;26.45;12.75;;;;;;;3.32;100.00;92814.09;5035694;28;20098;-75
2022/11/28 02:12:18;;;;;;;22.20;12.52;;;;;;;3.30;100.00;92810.97;5053327;28;20033;-74
2022/11/28 02:15:12;;;;;;;18.73;11.80;;;;;;;3.29;100.00;92801.63;5031626;28;20059;-75
2022/11/28 02:18:03;;;;;;;20.75;11.38;;;;;;;3.29;100.00;92796.47;5063186;28;20025;-75
2022/11/28 02:20:32;;;;;;;19.23;12.00;;;;;;;3.28;100.00;92800.06;5073235;28;20048;-74
2022/11/28 02:23:12;;;;;;;25.58;11.93;;;;;;;3.27;100.00;92795.91;5055447;28;20027;-74
2022/11/28 02:25:38;;;;;;;26.08;12.05;;;;;;;3.24;100.00;92781.66;5055177;28;20044;-74
2022/11/28 02:28:21;;;;;;;18.63;10.93;;;;;;;3.23;100.00;92768.94;5051929;28;20394;-74
2022/11/28 02:31:24;;;;;;;20.30;10.65;;;;;;;3.20;100.00;92765.00;5071902;28;20032;-74
2022/11/28 02:33:54;;;;;;;18.42;10.52;;;;;;;3.19;100.00;92766.00;5072976;28;20032;-74
2022/11/28 02:36:36;;;;;;;17.80;10.60;;;;;;;3.19;100.00;92773.00;5072950;28;20028;-74
2022/11/28 02:39:14;;;;;;;20.02;10.60;;;;;;;3.18;100.00;92763.69;5036283;28;20375;-74
2022/11/28 02:41:52;;;;;;;22.10;10.93;;;;;;;3.18;100.00;92772.22;5052894;28;20033;-74
2022/11/28 02:44:53;;;;;;;19.58;10.85;;;;;;;3.18;100.00;92753.34;5035054;28;20032;-75
2022/11/28 02:47:24;;;;;;;20.10;10.52;;;;;;;3.18;100.00;92750.75;5014774;28;20430;-74
2022/11/28 02:50:08;;;;;;;21.80;11.60;;;;;;;3.17;100.00;92744.00;5052948;28;20041;-74
2022/11/28 02:52:55;;;;;;;20.42;10.60;;;;;;;3.17;100.00;92746.56;5034760;28;20067;-74
2022/11/28 02:55:21;;;;;;;21.08;11.63;;;;;;;3.15;100.00;92736.44;5052594;28;20443;-75
2022/11/28 02:57:50;;;;;;;19.67;11.38;;;;;;;3.15;100.00;92739.03;5035417;28;20387;-74
2022/11/28 03:00:31;;;;;;;21.38;11.27;;;;;;;3.15;100.00;92736.44;5018185;28;20068;-74
2022/11/28 03:03:54;;;;;;;23.15;11.63;;;;;;;3.16;100.00;92740.63;5052124;28;20025;-74
2022/11/28 03:06:48;;;;;;;21.48;11.07;;;;;;;3.15;100.00;92730.50;4990569;28;20038;-74
2022/11/28 03:09:32;;;;;;;18.35;10.70;;;;;;;3.13;100.00;92728.16;4991052;28;20034;-74
2022/11/28 03:12:18;;;;;;;24.58;11.05;;;;;;;3.14;100.00;92742.66;5021002;28;20503;-74
2022/11/28 03:14:50;;;;;;;19.92;10.27;;;;;;;3.13;100.00;92734.13;5041420;28;20044;-74
2022/11/28 03:17:37;;;;;;;20.97;11.13;;;;;;;3.12;100.00;92740.28;5070300;28;20043;-74
2022/11/28 03:20:32;;;;;;;16.13;9.80;;;;;;;3.12;100.00;92740.28;5041430;28;20170;-74
2022/11/28 03:23:16;;;;;;;17.48;10.77;;;;;;;3.16;100.00;92743.22;5034094;28;20036;-74
2022/11/28 03:25:59;;;;;;;23.73;10.93;;;;;;;3.16;100.00;92739.84;5033997;28;20043;-75
2022/11/28 03:28:37;;;;;;;21.45;12.50;;;;;;;3.17;100.00;92744.00;5051792;28;20128;-74
2022/11/28 03:31:26;;;;;;;23.25;12.35;;;;;;;3.17;100.00;92741.41;5052930;28;20043;-74
2022/11/28 03:33:58;;;;;;;22.50;11.98;;;;;;;3.16;100.00;92743.22;5033931;28;20082;-74
2022/11/28 03:36:26;;;;;;;26.60;12.30;;;;;;;3.17;100.00;92744.00;5033695;28;20564;-74
2022/11/28 03:39:00;;;;;;;22.05;11.98;;;;;;;3.17;100.00;92741.41;5051422;28;20453;-74
2022/11/28 03:41:40;;;;;;;29.20;15.18;;;;;;;3.19;100.00;92739.38;5052591;28;20047;-74
2022/11/28 03:44:13;;;;;;;27.85;14.13;;;;;;;3.20;100.00;92735.75;5033801;28;20036;-75
2022/11/28 03:46:46;;;;;;;27.08;14.70;;;;;;;3.23;100.00;92738.66;5033819;28;20123;-74
2022/11/28 03:49:14;;;;;;;;;;;;;;;3.22;100.00;92731.13;5051936;28;20039;-74
2022/11/28 03:51:43;;;;;;;25.05;13.05;;;;;;;3.21;100.00;92734.75;5039092;28;19909;-74
2022/11/28 03:54:35;;;;;;;24.23;13.63;;;;;;;3.20;100.00;92733.16;5071179;28;20040;-74
2022/11/28 03:57:14;;;;;;;24.45;13.55;;;;;;;3.20;100.00;92728.78;5071285;28;20039;-74
2022/11/28 03:59:47;;;;;;;25.67;14.10;;;;;;;3.20;100.00;92726.22;5071212;28;20036;-75
2022/11/28 04:02:46;;;;;;;28.35;14.15;;;;;;;3.22;100.00;92723.38;5056384;28;20036;-74
2022/11/28 04:05:31;;;;;;;28.55;15.02;;;;;;;3.22;100.00;92731.13;5051298;28;20036;-75
2022/11/28 04:08:18;;;;;;;27.55;14.85;;;;;;;3.22;100.00;92726.75;5032994;28;20037;-74
2022/11/28 04:11:09;;;;;;;28.30;15.52;;;;;;;3.24;100.00;92723.91;5034402;28;20044;-74
2022/11/28 04:13:49;;;;;;;29.58;15.77;;;;;;;3.25;100.00;92728.88;5002759;28;20498;-75
2022/11/28 04:16:21;;;;;;;29.77;15.85;;;;;;;3.25;100.00;92730.69;5051004;28;20055;-74
2022/11/28 04:19:14;;;;;;;37.88;15.90;;;;;;;3.24;100.00;92723.91;5050905;28;20399;-74
2022/11/28 04:21:45;;;;;;;28.98;15.23;;;;;;;3.23;100.00;92723.13;5035319;28;20040;-75
2022/11/28 04:24:17;;;;;;;27.95;14.98;;;;;;;3.23;100.00;92724.94;5033083;28;20098;-73
2022/11/28 04:26:53;;;;;;;26.25;14.93;;;;;;;3.23;100.00;92722.34;5033234;28;20451;-74
2022/11/28 04:29:22;;;;;;;31.17;16.17;;;;;;;3.25;100.00;92720.31;5033298;28;20044;-73
2022/11/28 04:31:52;;;;;;;29.88;15.77;;;;;;;3.19;100.00;92722.03;5051795;28;20483;-74
2022/11/28 04:34:19;;;;;;;38.97;17.15;;;;;;;3.13;100.00;92713.41;5050837;28;20029;-74
2022/11/28 04:36:46;;;;;;;38.00;17.85;;;;;;;3.11;100.00;92705.09;5044554;28;20037;-74
2022/11/28 04:39:16;;;;;;;32.47;19.05;;;;;;;3.06;100.00;92699.06;5070173;28;20104;-74
2022/11/28 04:41:48;;;;;;;33.50;19.60;;;;;;;3.07;100.00;92706.59;5068381;28;20047;-74
2022/11/28 04:44:26;;;;;;;32.35;20.35;;;;;;;2.98;100.00;92710.59;5070801;28;20123;-74
2022/11/28 04:46:54;;;;;;;26.08;15.07;;;;;;;2.97;100.00;92701.25;5054350;28;20037;-74
2022/11/28 04:49:20;;;;;;;29.83;16.58;;;;;;;2.94;100.00;92693.97;5050657;28;20029;-74
2022/11/28 04:51:59;;;;;;;26.25;16.02;;;;;;;2.89;100.00;92686.91;5054183;28;20048;-74
2022/11/28 04:54:41;;;;;;;27.10;15.85;;;;;;;2.98;100.00;92687.31;5091268;28;20055;-74
2022/11/28 04:57:31;;;;;;;26.13;14.52;;;;;;;2.95;100.00;92684.41;5089472;28;20036;-74
2022/11/28 05:00:00;;;;;;;23.65;13.32;;;;;;;2.99;100.00;92683.69;5089795;28;20050;-73
2022/11/28 05:02:27;;;;;;;23.85;13.23;;;;;;;2.95;100.00;92681.81;5089617;28;20071;-73
2022/11/28 05:04:54;;;;;;;19.23;12.77;;;;;;;2.96;100.00;92688.56;5090723;28;20107;-73
2022/11/28 05:07:20;;;;;;;22.33;13.73;;;;;;;2.88;100.00;92687.94;5090741;28;20074;-73
2022/11/28 05:09:47;;;;;;;27.90;14.13;;;;;;;2.83;100.00;92684.47;5089522;28;20135;-73
2022/11/28 05:12:12;;;;;;;26.00;14.07;;;;;;;2.79;100.00;92684.16;5089535;28;20036;-73
2022/11/28 05:14:39;;;;;;;29.23;16.60;;;;;;;2.78;100.00;92679.22;5103402;28;20093;-73
2022/11/28 05:17:06;;;;;;;31.70;17.15;;;;;;;2.79;100.00;92675.59;5070606;28;20065;-73
2022/11/28 05:19:31;;;;;;;29.42;17.42;;;;;;;2.79;100.00;92670.44;5088395;28;20378;-73
2022/11/28 05:21:57;;;;;;;33.40;18.15;;;;;;;2.75;100.00;92657.22;5089406;28;20047;-73
2022/11/28 05:24:23;;;;;;;33.28;19.73;;;;;;;2.84;100.00;92662.78;5090715;28;20028;-73
2022/11/28 05:26:49;;;;;;;33.60;18.92;;;;;;;2.79;100.00;92653.13;5072446;28;20058;-73
2022/11/28 05:29:14;;;;;;;32.90;19.95;;;;;;;2.77;100.00;92641.44;5089534;28;20320;-73
2022/11/28 05:31:40;;;;;;;29.52;18.40;;;;;;;2.78;100.00;92643.03;5090453;28;20040;-73
2022/11/28 05:34:05;;;;;;;33.75;18.55;;;;;;;2.78;100.00;92643.03;5089371;28;20040;-73
2022/11/28 05:36:31;;;;;;;31.33;18.75;;;;;;;2.76;100.00;92637.31;5088425;28;20040;-73
2022/11/28 05:38:56;;;;;;;36.33;19.45;;;;;;;2.74;100.00;92636.75;5087331;28;20177;-74
2022/11/28 05:41:27;;;;;;;38.13;18.73;;;;;;;2.74;100.00;92634.16;5070013;28;20394;-74
2022/11/28 05:43:55;;;;;;;35.03;19.98;;;;;;;2.74;100.00;92639.34;5068967;28;20700;-73
2022/11/28 05:46:20;;;;;;;31.50;18.92;;;;;;;2.73;100.00;92632.59;5072719;28;20094;-75
2022/11/28 05:48:46;;;;;;;33.60;19.70;;;;;;;2.77;100.00;92638.84;5079653;28;20032;-73
2022/11/28 05:51:12;;;;;;;30.00;18.45;;;;;;;2.75;100.00;92627.97;5093386;28;20032;-73
2022/11/28 05:53:37;;;;;;;34.28;20.23;;;;;;;2.73;100.00;92622.25;5082066;28;20044;-74
2022/11/28 05:56:07;;;;;;;39.30;19.92;;;;;;;2.69;100.00;92622.72;5071852;28;20046;-73
2022/11/28 05:58:33;;;;;;;29.13;18.42;;;;;;;2.69;100.00;92627.09;5076564;28;20059;-74
2022/11/28 06:00:59;;;;;;;48.88;27.13;;;;;;;2.68;100.00;92617.81;5079532;28;20039;-74
2022/11/28 06:03:24;;;;;;;39.40;21.63;;;;;;;2.67;100.00;92617.00;5102568;28;20035;-74
2022/11/28 06:05:50;;;;;;;32.67;20.02;;;;;;;2.66;100.00;92623.19;5080956;28;20044;-73
2022/11/28 06:08:15;;;;;;;29.45;19.58;;;;;;;2.65;100.00;92634.53;5091936;28;20032;-73
2022/11/28 06:10:41;;;;;;;35.20;19.42;;;;;;;2.67;100.00;92626.56;5080246;28;20044;-73
2022/11/28 06:13:07;;;;;;;35.70;20.00;;;;;;;2.68;100.00;92620.38;5092035;28;20040;-73
2022/11/28 06:15:33;;;;;;;32.25;20.42;;;;;;;2.70;100.00;92619.13;5091759;28;20086;-73
2022/11/28 06:17:58;;;;;;;35.88;20.73;;;;;;;2.72;100.00;92624.03;5079113;28;20032;-74
2022/11/28 06:20:24;;;;;;;36.88;21.48;;;;;;;2.76;100.00;92619.19;5078069;28;20082;-74
2022/11/28 06:22:49;;;;;;;38.08;21.73;;;;;;;2.76;100.00;92622.56;5074206;28;20182;-73
2022/11/28 06:25:15;;;;;;;36.88;21.02;;;;;;;2.81;100.00;92619.28;5095878;28;20032;-73
2022/11/28 06:27:40;;;;;;;39.47;20.73;;;;;;;2.82;100.00;92618.28;5072667;28;20037;-73
2022/11/28 06:30:06;;;;;;;34.80;21.23;;;;;;;2.81;100.00;92621.84;5083280;28;20032;-73
2022/11/28 06:32:32;;;;;;;33.90;19.73;;;;;;;2.82;100.00;92620.84;5075779;28;20047;-73
2022/11/28 06:34:58;;;;;;;36.58;20.23;;;;;;;2.83;100.00;92635.34;5086424;28;20406;-73
2022/11/28 06:37:23;;;;;;;38.20;20.73;;;;;;;2.81;100.00;92622.63;5071489;28;20036;-74
2022/11/28 06:39:50;;;;;;;35.55;21.10;;;;;;;2.84;100.00;92627.34;5073060;28;20062;-73
2022/11/28 06:42:16;;;;;;;35.10;20.45;;;;;;;2.85;100.00;92625.56;5071630;28;20462;-73
2022/11/28 06:44:42;;;;;;;34.00;20.38;;;;;;;2.85;100.00;92622.97;5074591;28;20449;-73
2022/11/28 06:47:08;;;;;;;35.22;20.15;;;;;;;2.82;100.00;92628.63;5088777;28;20043;-73
2022/11/28 06:49:35;;;;;;;32.38;19.80;;;;;;;2.81;100.00;92637.38;5108692;28;20097;-72
2022/11/28 06:52:01;;;;;;;29.25;16.75;;;;;;;2.82;100.00;92637.16;5091451;28;20101;-72
2022/11/28 06:54:27;;;;;;;28.13;16.00;;;;;;;2.83;100.00;92623.19;5080489;28;20040;-72
2022/11/28 06:56:53;;;;;;;27.75;15.85;;;;;;;2.80;100.00;92625.47;5092113;28;20382;-75
2022/11/28 06:59:18;;;;;;;27.08;15.50;;;;;;;2.74;100.00;92619.44;5089071;28;20090;-75
2022/11/28 07:01:45;;;;;;;29.98;17.73;;;;;;;2.63;100.00;92623.63;5072354;28;20044;-76
2022/11/28 07:04:11;;;;;;;30.67;18.17;;;;;;;2.60;100.00;92626.72;5092093;28;20471;-75
2022/11/28 07:06:37;;;;;;;30.00;16.65;;;;;;;2.59;100.00;92614.81;5080559;28;20047;-75
2022/11/28 07:09:03;;;;;;;30.70;15.68;;;;;;;2.61;100.00;92624.91;5076544;28;20032;-77
2022/11/28 07:11:30;;;;;;;29.10;16.27;;;;;;;2.60;100.00;92629.28;5092377;28;20448;-77
2022/11/28 07:13:57;;;;;;;27.75;15.60;;;;;;;2.63;100.00;92626.22;5093529;28;20598;-77
2022/11/28 07:16:29;;;;;;;28.85;15.10;;;;;;;2.62;100.00;92624.69;5077103;28;20200;-77
2022/11/28 07:18:55;;;;;;;27.73;14.82;;;;;;;2.60;100.00;92618.19;5056917;28;20088;-77
2022/11/28 07:21:21;;;;;;;24.83;14.27;;;;;;;2.58;100.00;92615.81;5077415;28;20043;-77
2022/11/28 07:23:47;;;;;;;18.45;11.65;;;;;;;2.82;100.00;92619.06;5104929;28;20486;-77
2022/11/28 07:26:15;;;;;;;27.55;15.30;;;;;;;2.66;100.00;92614.66;5075448;28;20577;-77
2022/11/28 07:28:42;;;;;;;25.60;14.35;;;;;;;2.77;100.00;92626.72;5084762;28;20062;-77
2022/11/28 07:31:11;;;;;;;23.65;13.73;;;;;;;2.70;100.00;92621.72;5088718;28;20032;-77
2022/11/28 07:33:38;;;;;;;24.90;14.63;;;;;;;2.71;100.00;92631.03;5091682;28;20028;-77
2022/11/28 07:36:25;;;;;;;22.75;12.75;;;;;;;2.63;100.00;92626.22;5092137;28;20035;-77
2022/11/28 07:38:54;;;;;;;23.23;13.82;;;;;;;2.63;100.00;92625.44;5085670;28;20044;-77
2022/11/28 07:41:21;;;;;;;19.42;10.75;;;;;;;2.79;100.00;92629.06;5086388;28;20024;-77
2022/11/28 07:43:47;;;;;;;21.52;12.65;;;;;;;2.71;100.00;92631.03;5091334;28;20100;-79
2022/11/28 07:46:15;;;;;;;25.35;13.85;;;;;;;2.66;100.00;92630.16;5072746;28;20106;-78
2022/11/28 07:48:41;;;;;;;23.00;14.35;;;;;;;2.65;100.00;92633.75;5073248;28;20051;-78
2022/11/28 07:51:09;;;;;;;28.65;15.18;;;;;;;2.63;100.00;92628.81;5078352;28;20024;-77
2022/11/28 07:53:36;;;;;;;28.75;16.58;;;;;;;2.66;100.00;92625.78;5073635;28;20056;-77
2022/11/28 07:56:03;;;;;;;26.67;16.05;;;;;;;2.68;100.00;92635.91;5075746;28;20123;-78
2022/11/28 07:58:29;;;;;;;43.28;20.63;;;;;;;2.73;100.00;92630.81;5085768;28;20109;-76
2022/11/28 08:00:55;;;;;;;30.25;17.67;;;;;;;2.74;100.00;92629.78;5078563;28;20502;-77
2022/11/28 08:03:20;;;;;;;26.13;15.90;;;;;;;2.80;100.00;92635.81;5107005;28;20027;-81
2022/11/28 08:05:48;;;;;;;26.90;15.88;;;;;;;2.84;100.00;92632.53;5087944;28;20043;-77
2022/11/28 08:08:17;;;;;;;28.17;15.95;;;;;;;2.92;100.00;92634.72;5082889;28;20043;-76
2022/11/28 08:10:43;;;;;;;31.75;17.27;;;;;;;2.97;100.00;92631.41;5072201;28;20465;-77
2022/11/28 08:13:10;;;;;;;30.27;17.48;;;;;;;3.04;100.00;92626.88;5068457;28;20028;-77
2022/11/28 08:15:37;;;;;;;29.20;16.70;;;;;;;3.13;100.00;92635.03;5090348;28;20024;-78
2022/11/28 08:18:02;;;;;;;28.13;16.92;;;;;;;3.19;100.00;92639.25;5082842;28;20063;-77
2022/11/28 08:20:28;;;;;;;30.08;17.48;;;;;;;3.19;100.00;92631.50;5084101;28;20029;-78
2022/11/28 08:22:53;;;;;;;34.83;17.80;;;;;;;3.23;100.00;92629.22;5073549;28;20049;-77
2022/11/28 08:25:19;;;;;;;31.80;17.17;;;;;;;3.27;100.00;92625.16;5073825;28;20123;-77
2022/11/28 08:27:45;;;;;;;30.52;16.98;;;;;;;3.27;100.00;92630.31;5073653;28;20028;-76
2022/11/28 08:30:11;;;;;;;30.45;16.33;;;;;;;3.30;100.00;92628.03;5086765;28;20064;-77
2022/11/28 08:32:36;;;;;;;32.65;17.38;;;;;;;3.36;100.00;92626.31;5089787;28;20043;-77
2022/11/28 08:35:02;;;;;;;30.05;18.00;;;;;;;3.30;100.00;92632.41;5073571;28;20040;-76
2022/11/28 08:37:27;;;;;;;36.67;18.27;;;;;;;3.34;100.00;92630.94;5071654;28;20029;-77
2022/11/28 08:39:53;;;;;;;35.65;19.05;;;;;;;3.29;100.00;92629.06;5062104;28;20084;-76
2022/11/28 08:42:19;;;;;;;32.67;18.52;;;;;;;3.28;100.00;92627.47;5086686;28;20032;-77
2022/11/28 08:44:44;;;;;;;33.78;18.63;;;;;;;3.43;100.00;92634.69;5075512;28;20031;-76
2022/11/28 08:47:10;;;;;;;31.90;18.65;;;;;;;3.37;100.00;92627.09;5082864;28;20043;-76
2022/11/28 08:49:36;;;;;;;23.45;13.65;;;;;;;3.65;100.00;92636.53;5072742;28;20567;-77
2022/11/28 08:52:03;;;;;;;27.88;15.75;;;;;;;3.50;100.00;92637.09;5080392;28;20537;-75
2022/11/28 08:54:29;;;;;;;28.00;15.70;;;;;;;3.43;100.00;92639.06;5070863;28;20028;-76
2022/11/28 08:56:54;;;;;;;25.33;15.93;;;;;;;3.25;100.00;92638.31;5076754;28;20048;-76
2022/11/28 08:59:20;;;;;;;32.70;16.50;;;;;;;3.18;100.00;92637.69;5106540;28;20105;-76
2022/11/28 09:01:45;;;;;;;28.70;16.13;;;;;;;3.17;100.00;92641.28;5089928;28;20387;-76
2022/11/28 09:04:11;;;;;;;31.65;17.10;;;;;;;3.04;100.00;92636.44;5087482;28;20028;-76
2022/11/28 09:06:40;;;;;;;32.90;17.75;;;;;;;3.11;100.00;92637.84;5078538;28;20032;-75
2022/11/28 09:09:05;;;;;;;34.10;17.52;;;;;;;3.16;100.00;92638.94;5089498;28;20043;-75
2022/11/28 09:11:31;;;;;;;28.20;16.33;;;;;;;3.14;100.00;92646.94;5074575;28;20119;-75
2022/11/28 09:13:58;;;;;;;30.13;18.95;;;;;;;3.16;100.00;92639.72;5070607;28;20028;-75
2022/11/28 09:16:24;;;;;;;27.83;18.10;;;;;;;3.25;100.00;92635.72;5063402;28;20040;-75
2022/11/28 09:18:50;;;;;;;28.15;17.88;;;;;;;3.22;100.00;92638.00;5083597;28;20570;-75
2022/11/28 09:21:15;;;;;;;27.27;18.13;;;;;;;3.20;100.00;92638.25;5068439;28;20060;-75
2022/11/28 09:23:42;;;;;;;32.35;17.98;;;;;;;3.22;100.00;92638.00;5088863;28;20400;-75
2022/11/28 09:26:14;;;;;;;29.50;17.92;;;;;;;3.27;100.00;92644.03;5092435;28;20123;-75
2022/11/28 09:28:40;;;;;;;25.70;15.48;;;;;;;3.57;100.00;92639.50;5093899;28;20048;-75
2022/11/28 09:31:07;;;;;;;28.67;17.48;;;;;;;3.53;100.00;92642.59;5083919;28;20036;-75
2022/11/28 09:33:33;;;;;;;30.70;17.35;;;;;;;3.46;100.00;92643.78;5093747;28;20042;-75
2022/11/28 09:36:04;;;;;;;31.42;17.63;;;;;;;3.50;100.00;92639.69;5080156;28;20029;-76
2022/11/28 09:38:29;;;;;;;33.10;17.98;;;;;;;3.45;100.00;92640.41;5081643;28;20115;-76
2022/11/28 09:40:55;;;;;;;29.60;18.52;;;;;;;3.54;100.00;92638.97;5068333;28;20032;-76
2022/11/28 09:43:42;;;;;;;32.65;18.20;;;;;;;3.52;100.00;92633.25;5080561;28;20516;-75
2022/11/28 09:46:13;;;;;;;29.10;17.88;;;;;;;3.57;100.00;92634.34;5084794;28;20071;-75
2022/11/28 09:48:48;;;;;;;31.83;16.80;;;;;;;3.80;100.00;92634.09;5084933;28;20333;-76
2022/11/28 09:51:26;;;;;;;27.08;16.55;;;;;;;3.85;100.00;92625.63;5087986;28;20040;-75
2022/11/28 09:54:29;;;;;;;26.13;15.38;;;;;;;3.85;100.00;92625.63;5080385;28;20097;-76
2022/11/28 09:56:55;;;;;;;;;;;;;;;3.89;100.00;92624.88;5083866;28;20067;-76
2022/11/28 09:59:27;;;;;;;28.88;15.85;;;;;;;3.77;100.00;92634.59;5076657;28;19971;-76
2022/11/28 10:02:15;;;;;;;25.48;13.95;;;;;;;3.93;100.00;92625.97;5093766;28;20036;-76
2022/11/28 10:04:48;;;;;;;30.85;14.82;;;;;;;3.97;100.00;92619.28;5089425;28;20058;-76
2022/11/28 10:07:37;;;;;;;26.38;14.77;;;;;;;3.93;100.00;92615.63;5093216;28;20038;-76
2022/11/28 10:10:21;;;;;;;24.90;13.93;;;;;;;3.92;100.00;92606.28;5085408;28;20043;-75
2022/11/28 10:12:59;;;;;;;24.50;14.05;;;;;;;3.88;100.00;92610.38;5089569;28;20031;-76
2022/11/28 10:15:30;;;;;;;28.92;15.60;;;;;;;3.76;100.00;92596.78;5075911;28;20032;-76
2022/11/28 10:18:18;;;;;;;25.98;15.23;;;;;;;3.77;100.00;92597.56;5092150;28;20054;-76
2022/11/28 10:20:47;;;;;;;27.35;13.50;;;;;;;3.70;100.00;92601.13;5083975;28;20498;-76
2022/11/28 10:23:19;;;;;;;29.02;15.80;;;;;;;3.64;100.00;92606.47;5088691;28;20016;-76
2022/11/28 10:25:58;;;;;;;29.93;16.90;;;;;;;3.75;100.00;92597.81;5091162;28;20042;-76
2022/11/28 10:28:33;;;;;;;25.52;14.23;;;;;;;3.87;100.00;92592.50;5079979;28;20036;-76
2022/11/28 10:31:30;;;;;;;35.40;18.13;;;;;;;3.69;100.00;92591.78;5079126;28;20040;-76
2022/11/28 10:34:07;;;;;;;25.80;15.57;;;;;;;3.64;100.00;92583.16;5089174;28;20107;-76
2022/11/28 10:36:47;;;;;;;28.90;17.92;;;;;;;3.59;100.00;92577.94;5071389;28;20045;-76
2022/11/28 10:39:13;;;;;;;33.40;19.27;;;;;;;3.75;100.00;92574.50;5089347;28;20051;-76
2022/11/28 10:42:12;;;;;;;38.60;20.27;;;;;;;3.72;100.00;92575.00;5078265;28;20024;-76
2022/11/28 10:45:01;;;;;;;38.40;18.17;;;;;;;3.81;100.00;92570.94;5084919;28;20501;-76
2022/11/28 10:47:38;;;;;;;33.95;18.05;;;;;;;3.78;100.00;92558.47;5073393;28;20139;-76
2022/11/28 10:50:39;;;;;;;34.08;19.10;;;;;;;3.77;100.00;92562.09;5075402;28;20445;-76
2022/11/28 10:53:26;;;;;;;33.00;18.63;;;;;;;3.94;100.00;92543.88;5088062;28;20575;-76
2022/11/28 10:55:59;;;;;;;34.33;18.65;;;;;;;3.92;100.00;92554.50;5092112;28;20243;-76
2022/11/28 10:59:09;;;;;;;38.33;20.40;;;;;;;3.85;100.00;92543.56;5084436;28;20031;-76
2022/11/28 11:01:39;;;;;;;30.58;19.05;;;;;;;4.00;100.00;92539.53;5042723;28;20037;-76
2022/11/28 11:04:17;;;;;;;37.97;20.35;;;;;;;3.83;100.00;92532.66;5077612;28;20040;-76
2022/11/28 11:06:46;;;;;;;23.38;14.77;;;;;;;4.05;100.00;92530.00;5077980;28;20032;-75
2022/11/28 11:09:12;;;;;;;29.55;16.58;;;;;;;3.94;100.00;92523.97;5087340;28;20039;-75
2022/11/28 11:11:49;;;;;;;32.97;18.58;;;;;;;3.89;100.00;92518.72;5091836;28;20024;-75
2022/11/28 11:14:32;;;;;;;36.08;18.67;;;;;;;3.78;100.00;92516.25;5085622;28;20032;-76
2022/11/28 11:16:58;;;;;;;31.05;18.58;;;;;;;3.85;100.00;92516.84;5087655;28;20036;-75
2022/11/28 11:19:34;;;;;;;31.25;17.95;;;;;;;3.99;100.00;92518.03;5092022;28;20032;-75
2022/11/28 11:22:17;;;;;;;34.72;19.08;;;;;;;4.06;100.00;92517.84;5091580;28;20032;-75
2022/11/28 11:24:44;;;;;;;36.50;17.42;;;;;;;4.25;100.00;92510.50;5073757;28;20177;-75
2022/11/28 11:27:20;;;;;;;31.13;18.95;;;;;;;4.17;100.00;92509.16;5089558;28;20032;-76
2022/11/28 11:29:46;;;;;;;31.23;19.33;;;;;;;4.16;100.00;92503.16;5088610;28;20583;-76
2022/11/28 11:32:22;;;;;;;28.33;17.58;;;;;;;4.22;100.00;92496.22;5088854;28;20046;-76
2022/11/28 11:34:48;;;;;;;30.52;17.67;;;;;;;4.34;100.00;92496.84;5080973;28;20040;-75
2022/11/28 11:37:33;;;;;;;28.95;18.65;;;;;;;4.37;100.00;92498.16;5059368;28;20028;-76
2022/11/28 11:40:01;;;;;;;29.63;18.00;;;;;;;4.53;100.00;92496.47;5084615;28;20089;-76